createdAt,value
2022-07-26T00:01:23.499Z,4.33
2022-07-26T00:03:54.931Z,4.17
2022-07-26T00:06:23.253Z,4.33
2022-07-26T00:08:51.331Z,4.80
2022-07-26T00:11:19.676Z,4.90
2022-07-26T00:13:48.513Z,4.40
2022-07-26T00:16:18.503Z,5.40
2022-07-26T00:18:47.606Z,4.97
2022-07-26T00:21:16.122Z,4.37
2022-07-26T00:23:44.159Z,5.60
2022-07-26T00:26:12.199Z,5.10
2022-07-26T00:28:41.594Z,4.63
2022-07-26T00:31:11.937Z,4.47
2022-07-26T00:33:41.661Z,4.87
2022-07-26T00:36:10.021Z,5.17
2022-07-26T00:38:38.450Z,5.00
2022-07-26T00:41:07.809Z,5.10
2022-07-26T00:43:35.987Z,5.20
2022-07-26T00:46:04.376Z,5.47
2022-07-26T00:48:32.701Z,5.37
2022-07-26T00:51:02.410Z,5.43
2022-07-26T00:53:30.532Z,5.20
2022-07-26T00:55:59.045Z,5.00
2022-07-26T00:58:27.226Z,5.07
2022-07-26T01:00:55.536Z,5.57
2022-07-26T01:03:24.023Z,4.80
2022-07-26T01:05:58.562Z,5.27
2022-07-26T01:08:28.575Z,5.40
2022-07-26T01:10:57.055Z,5.27
2022-07-26T01:13:25.321Z,5.40
2022-07-26T01:15:53.832Z,5.30
2022-07-26T01:18:22.110Z,5.03
2022-07-26T01:20:51.422Z,5.17
2022-07-26T01:23:21.319Z,5.83
2022-07-26T01:25:49.580Z,4.93
2022-07-26T01:28:20.524Z,5.17
2022-07-26T01:30:49.552Z,5.37
2022-07-26T01:33:17.767Z,5.40
2022-07-26T01:35:46.013Z,5.33
2022-07-26T01:38:14.345Z,5.07
2022-07-26T01:40:43.864Z,5.60
2022-07-26T01:43:12.258Z,4.90
2022-07-26T01:45:40.617Z,5.63
2022-07-26T01:48:08.731Z,4.67
2022-07-26T01:50:37.168Z,6.40
2022-07-26T01:53:06.146Z,5.60
2022-07-26T01:55:34.560Z,5.83
2022-07-26T01:58:05.017Z,5.57
2022-07-26T02:00:34.222Z,5.60
2022-07-26T02:03:02.906Z,4.50
2022-07-26T02:05:31.389Z,4.67
2022-07-26T02:07:59.560Z,4.30
2022-07-26T02:10:48.774Z,5.00
2022-07-26T02:13:18.898Z,5.13
2022-07-26T02:15:47.183Z,4.40
2022-07-26T02:18:15.483Z,5.10
2022-07-26T02:20:44.151Z,4.10
2022-07-26T02:23:12.409Z,4.30
2022-07-26T02:25:40.624Z,4.90
2022-07-26T02:28:08.952Z,4.83
2022-07-26T02:30:38.511Z,4.77
2022-07-26T02:33:07.871Z,4.03
2022-07-26T02:35:36.617Z,4.93
2022-07-26T02:38:07.071Z,4.10
2022-07-26T02:40:35.809Z,4.27
2022-07-26T02:43:05.568Z,4.00
2022-07-26T02:45:33.855Z,3.80
2022-07-26T02:48:03.430Z,3.50
2022-07-26T02:50:31.933Z,3.80
2022-07-26T02:53:00.237Z,3.73
2022-07-26T02:55:28.572Z,3.27
2022-07-26T02:57:56.983Z,3.77
2022-07-26T03:00:26.751Z,2.83
2022-07-26T03:02:55.048Z,3.20
2022-07-26T03:05:25.004Z,2.93
2022-07-26T03:07:53.041Z,2.43
2022-07-26T03:10:21.097Z,2.93
2022-07-26T03:12:49.721Z,2.73
2022-07-26T03:15:18.522Z,2.20
2022-07-26T03:17:46.654Z,1.67
2022-07-26T03:20:15.101Z,1.30
2022-07-26T03:22:44.758Z,1.60
2022-07-26T03:25:12.922Z,1.37
2022-07-26T03:27:41.255Z,1.40
2022-07-26T03:30:10.455Z,1.30
2022-07-26T03:32:39.112Z,1.30
2022-07-26T03:35:08.829Z,1.40
2022-07-26T03:37:45.079Z,1.00
2022-07-26T03:40:16.782Z,1.10
2022-07-26T03:42:45.297Z,1.07
2022-07-26T03:45:13.595Z,1.17
2022-07-26T03:47:42.460Z,1.30
2022-07-26T03:50:13.708Z,1.47
2022-07-26T03:52:42.552Z,1.60
2022-07-26T03:55:28.904Z,2.07
2022-07-26T03:57:58.934Z,1.60
2022-07-26T04:00:27.831Z,1.67
2022-07-26T04:02:56.278Z,1.20
2022-07-26T04:05:25.999Z,1.47
2022-07-26T04:07:54.345Z,1.20
2022-07-26T04:10:24.993Z,1.23
2022-07-26T04:12:53.065Z,1.13
2022-07-26T04:15:23.265Z,1.40
2022-07-26T04:17:51.779Z,1.30
2022-07-26T04:20:19.969Z,1.30
2022-07-26T04:22:48.185Z,1.20
2022-07-26T04:25:16.412Z,1.60
2022-07-26T04:27:44.590Z,1.00
2022-07-26T04:30:15.394Z,0.83
2022-07-26T04:32:46.619Z,1.20
2022-07-26T04:35:15.855Z,1.20
2022-07-26T04:37:44.818Z,1.10
2022-07-26T04:40:17.096Z,1.07
2022-07-26T04:42:45.114Z,1.10
2022-07-26T04:45:13.886Z,1.13
2022-07-26T04:47:43.228Z,1.00
2022-07-26T04:50:13.740Z,1.00
2022-07-26T04:52:43.641Z,1.20
2022-07-26T04:55:12.679Z,1.00
2022-07-26T04:57:40.691Z,0.90
2022-07-26T05:00:27.239Z,1.60
2022-07-26T05:02:57.381Z,0.83
2022-07-26T05:05:29.739Z,1.17
2022-07-26T05:08:00.463Z,1.20
2022-07-26T05:10:33.585Z,1.03
2022-07-26T05:13:02.984Z,1.20
2022-07-26T05:15:35.080Z,1.10
2022-07-26T05:18:10.313Z,1.17
2022-07-26T05:20:41.059Z,1.10
2022-07-26T05:23:09.615Z,0.93
2022-07-26T05:25:41.594Z,1.33
2022-07-26T05:28:09.780Z,1.03
2022-07-26T05:30:38.445Z,1.17
2022-07-26T05:33:06.847Z,1.63
2022-07-26T05:35:35.580Z,1.40
2022-07-26T05:38:07.661Z,1.47
2022-07-26T05:40:36.714Z,1.27
2022-07-26T05:43:04.949Z,1.20
2022-07-26T05:45:33.210Z,1.20
2022-07-26T05:48:01.609Z,1.00
2022-07-26T05:50:30.041Z,1.30
2022-07-26T05:52:58.216Z,1.40
2022-07-26T05:55:27.724Z,0.97
2022-07-26T05:57:55.785Z,0.90
2022-07-26T06:00:23.938Z,1.10
2022-07-26T06:02:52.353Z,0.80
2022-07-26T06:05:20.591Z,1.17
2022-07-26T06:07:48.973Z,1.27
2022-07-26T06:10:17.267Z,1.30
2022-07-26T06:12:46.617Z,1.00
2022-07-26T06:15:16.089Z,1.30
2022-07-26T06:17:44.481Z,1.57
2022-07-26T06:20:13.106Z,1.10
2022-07-26T06:22:41.420Z,1.20
2022-07-26T06:25:10.397Z,1.30
2022-07-26T06:27:38.414Z,1.40
2022-07-26T06:30:11.103Z,1.63
2022-07-26T06:32:39.438Z,1.00
2022-07-26T06:35:08.383Z,1.67
2022-07-26T06:37:38.448Z,1.30
2022-07-26T06:40:08.776Z,1.63
2022-07-26T06:42:37.560Z,1.53
2022-07-26T06:45:09.268Z,1.07
2022-07-26T06:47:37.297Z,0.93
2022-07-26T06:50:06.744Z,1.03
2022-07-26T06:52:38.167Z,0.90
2022-07-26T06:55:09.152Z,0.83
2022-07-26T06:57:45.065Z,0.60
2022-07-26T07:00:25.395Z,1.10
2022-07-26T07:02:53.607Z,1.10
2022-07-26T07:05:22.001Z,1.37
2022-07-26T07:07:50.089Z,1.00
2022-07-26T07:10:21.851Z,1.17
2022-07-26T07:12:52.417Z,1.60
2022-07-26T07:15:22.280Z,1.83
2022-07-26T07:17:51.930Z,1.03
2022-07-26T07:20:20.410Z,1.20
2022-07-26T07:22:49.069Z,1.20
2022-07-26T07:25:17.240Z,1.20
2022-07-26T07:27:45.344Z,1.40
2022-07-26T07:30:14.696Z,1.67
2022-07-26T07:32:44.444Z,1.47
2022-07-26T07:35:13.218Z,1.60
2022-07-26T07:37:53.212Z,1.97
2022-07-26T07:40:23.242Z,1.27
2022-07-26T07:42:52.049Z,1.80
2022-07-26T07:45:20.585Z,1.13
2022-07-26T07:47:50.242Z,1.20
2022-07-26T07:50:18.682Z,0.80
2022-07-26T07:52:49.444Z,1.70
2022-07-26T07:55:37.795Z,1.07
2022-07-26T07:58:07.315Z,1.20
2022-07-26T08:00:35.678Z,1.40
2022-07-26T08:03:07.023Z,1.10
2022-07-26T08:05:40.461Z,0.90
2022-07-26T08:08:08.879Z,1.20
2022-07-26T08:10:38.707Z,1.20
2022-07-26T08:13:11.853Z,1.30
2022-07-26T08:15:40.535Z,1.20
2022-07-26T08:18:10.173Z,0.70
2022-07-26T08:20:42.314Z,1.10
2022-07-26T08:23:10.520Z,1.00
2022-07-26T08:25:50.086Z,0.93
2022-07-26T08:28:46.325Z,1.00
2022-07-26T08:31:12.421Z,0.73
2022-07-26T08:33:46.313Z,1.00
2022-07-26T08:36:15.801Z,1.00
2022-07-26T08:38:44.767Z,1.13
2022-07-26T08:41:16.944Z,1.17
2022-07-26T08:43:51.747Z,1.60
2022-07-26T08:46:25.364Z,1.10
2022-07-26T08:48:57.431Z,1.33
2022-07-26T08:51:27.302Z,1.20
2022-07-26T08:54:04.912Z,1.50
2022-07-26T08:56:36.063Z,1.30
2022-07-26T08:59:07.445Z,1.17
2022-07-26T09:01:35.726Z,1.03
2022-07-26T09:04:31.113Z,1.17
2022-07-26T09:07:04.626Z,0.90
2022-07-26T09:09:33.336Z,1.33
2022-07-26T09:12:15.934Z,1.40
2022-07-26T09:14:46.964Z,1.80
2022-07-26T09:17:15.829Z,1.97
2022-07-26T09:19:46.244Z,1.63
2022-07-26T09:22:16.414Z,1.13
2022-07-26T09:24:48.074Z,1.30
2022-07-26T09:27:18.266Z,1.00
2022-07-26T09:29:48.665Z,1.40
2022-07-26T09:32:19.877Z,1.13
2022-07-26T09:34:54.347Z,1.40
2022-07-26T09:37:36.761Z,1.80
2022-07-26T09:40:08.951Z,2.23
2022-07-26T09:42:37.365Z,1.63
2022-07-26T09:45:17.006Z,1.57
2022-07-26T09:47:45.349Z,1.77
2022-07-26T09:50:17.426Z,1.23
2022-07-26T09:53:08.956Z,1.60
2022-07-26T09:55:54.898Z,1.47
2022-07-26T09:58:24.169Z,1.00
2022-07-26T10:00:52.593Z,1.40
2022-07-26T10:03:20.642Z,1.30
2022-07-26T10:05:51.070Z,1.27
2022-07-26T10:08:20.038Z,1.57
2022-07-26T10:10:51.930Z,1.40
2022-07-26T10:13:20.183Z,1.33
2022-07-26T10:15:49.664Z,1.10
2022-07-26T10:18:51.316Z,1.63
2022-07-26T10:21:22.634Z,1.33
2022-07-26T10:23:52.318Z,1.90
2022-07-26T10:26:42.172Z,1.33
2022-07-26T10:29:29.608Z,1.70
2022-07-26T10:32:20.787Z,1.80
2022-07-26T10:34:49.353Z,1.50
2022-07-26T10:37:30.775Z,1.87
2022-07-26T10:40:25.445Z,1.40
2022-07-26T10:42:53.536Z,1.20
2022-07-26T10:45:23.935Z,1.37
2022-07-26T10:48:16.526Z,1.37
2022-07-26T10:50:46.838Z,1.40
2022-07-26T10:53:21.703Z,1.27
2022-07-26T10:55:52.090Z,2.50
2022-07-26T10:58:20.989Z,1.13
2022-07-26T11:00:57.703Z,1.53
2022-07-26T11:03:26.465Z,1.30
2022-07-26T11:05:54.627Z,1.40
2022-07-26T11:08:31.603Z,1.70
2022-07-26T11:10:59.602Z,1.60
2022-07-26T11:13:28.980Z,1.40
2022-07-26T11:16:02.389Z,1.20
2022-07-26T11:18:32.820Z,1.30
2022-07-26T11:21:10.981Z,1.40
2022-07-26T11:23:44.057Z,1.20
2022-07-26T11:26:16.018Z,0.97
2022-07-26T11:28:53.554Z,1.60
2022-07-26T11:31:49.563Z,1.10
2022-07-26T11:34:19.193Z,1.10
2022-07-26T11:36:48.827Z,1.30
2022-07-26T11:39:23.998Z,1.00
2022-07-26T11:41:53.629Z,1.20
2022-07-26T11:44:23.424Z,1.73
2022-07-26T11:46:52.628Z,1.60
2022-07-26T11:49:27.685Z,1.00
2022-07-26T11:52:04.932Z,1.80
2022-07-26T11:54:45.410Z,1.17
2022-07-26T11:57:13.817Z,1.50
2022-07-26T11:59:42.587Z,1.10
2022-07-26T12:02:11.229Z,1.20
2022-07-26T12:04:41.047Z,1.10
2022-07-26T12:07:11.590Z,1.10
2022-07-26T12:09:43.351Z,1.40
2022-07-26T12:12:21.038Z,1.33
2022-07-26T12:14:58.274Z,1.40
2022-07-26T12:17:26.841Z,0.97
2022-07-26T12:20:12.774Z,1.47
2022-07-26T12:22:41.808Z,1.30
2022-07-26T12:25:11.426Z,1.70
2022-07-26T12:27:47.473Z,1.50
2022-07-26T12:30:17.173Z,1.10
2022-07-26T12:32:46.401Z,1.43
2022-07-26T12:35:16.583Z,0.90
2022-07-26T12:37:51.486Z,1.00
2022-07-26T12:40:22.910Z,1.40
2022-07-26T12:43:00.788Z,1.07
2022-07-26T12:45:32.898Z,1.37
2022-07-26T12:48:02.819Z,0.83
2022-07-26T12:50:32.926Z,1.03
2022-07-26T12:53:02.953Z,1.00
2022-07-26T12:55:32.832Z,1.50
2022-07-26T12:58:00.873Z,1.63
2022-07-26T13:00:30.336Z,1.90
2022-07-26T13:02:58.866Z,1.13
2022-07-26T13:05:27.016Z,1.03
2022-07-26T13:07:55.753Z,1.00
2022-07-26T13:10:39.648Z,1.10
2022-07-26T13:13:09.646Z,1.20
2022-07-26T13:15:38.136Z,1.60
2022-07-26T13:18:08.361Z,1.50
2022-07-26T13:20:39.496Z,1.63
2022-07-26T13:23:11.202Z,1.00
2022-07-26T13:25:40.732Z,1.10
2022-07-26T13:28:10.449Z,1.10
2022-07-26T13:30:43.224Z,0.90
2022-07-26T13:33:12.236Z,1.07
2022-07-26T13:35:42.604Z,0.93
2022-07-26T13:38:11.032Z,1.30
2022-07-26T13:40:39.553Z,1.40
2022-07-26T13:43:07.622Z,1.30
2022-07-26T13:45:37.002Z,1.00
2022-07-26T13:48:05.562Z,1.23
2022-07-26T13:50:33.556Z,0.90
2022-07-26T13:53:01.512Z,1.20
2022-07-26T13:55:29.812Z,1.30
2022-07-26T13:57:58.561Z,1.10
2022-07-26T14:00:27.313Z,1.40
2022-07-26T14:02:59.913Z,0.93
2022-07-26T14:05:29.263Z,1.40
2022-07-26T14:07:57.462Z,2.07
2022-07-26T14:10:26.134Z,1.83
2022-07-26T14:12:54.520Z,1.23
2022-07-26T14:15:23.670Z,1.40
2022-07-26T14:17:52.561Z,1.60
2022-07-26T14:20:22.399Z,1.27
2022-07-26T14:22:53.821Z,1.40
2022-07-26T14:25:22.445Z,1.53
2022-07-26T14:27:51.176Z,1.43
2022-07-26T14:30:19.613Z,1.73
2022-07-26T14:32:48.195Z,1.00
2022-07-26T14:35:17.651Z,1.20
2022-07-26T14:37:47.199Z,1.23
2022-07-26T14:40:16.868Z,1.40
2022-07-26T14:42:45.542Z,1.70
2022-07-26T14:45:14.899Z,1.57
2022-07-26T14:47:43.031Z,1.70
2022-07-26T14:50:12.574Z,1.53
2022-07-26T14:52:42.320Z,2.10
2022-07-26T14:55:12.685Z,1.60
2022-07-26T14:57:41.742Z,2.03
2022-07-26T15:00:12.263Z,1.43
2022-07-26T15:02:41.711Z,1.27
2022-07-26T15:05:10.842Z,2.17
2022-07-26T15:07:39.012Z,1.30
2022-07-26T15:10:09.438Z,1.33
2022-07-26T15:12:39.140Z,1.70
2022-07-26T15:15:11.116Z,1.37
2022-07-26T15:17:39.259Z,1.13
2022-07-26T15:20:08.909Z,1.50
2022-07-26T15:22:37.436Z,1.13
2022-07-26T15:25:06.079Z,1.30
2022-07-26T15:27:34.143Z,1.20
2022-07-26T15:30:08.065Z,1.10
2022-07-26T15:32:39.654Z,1.57
2022-07-26T15:35:14.308Z,1.80
2022-07-26T15:37:44.772Z,1.50
2022-07-26T15:40:13.959Z,2.07
2022-07-26T15:42:44.287Z,1.20
2022-07-26T15:45:15.351Z,1.50
2022-07-26T15:47:54.850Z,1.30
2022-07-26T15:50:24.451Z,2.20
2022-07-26T15:52:52.486Z,1.80
2022-07-26T15:55:21.225Z,1.20
2022-07-26T15:57:49.904Z,1.90
2022-07-26T16:00:19.865Z,1.40
2022-07-26T16:02:47.958Z,1.50
2022-07-26T16:05:16.334Z,1.50
2022-07-26T16:07:45.525Z,1.23
2022-07-26T16:10:14.948Z,1.20
2022-07-26T16:12:43.963Z,1.60
2022-07-26T16:15:13.078Z,1.70
2022-07-26T16:17:42.649Z,1.73
2022-07-26T16:20:11.392Z,1.00
2022-07-26T16:22:41.316Z,1.63
2022-07-26T16:25:12.792Z,1.77
2022-07-26T16:27:41.469Z,1.40
2022-07-26T16:30:10.693Z,1.47
2022-07-26T16:32:38.853Z,1.50
2022-07-26T16:35:09.697Z,1.67
2022-07-26T16:37:41.726Z,1.60
2022-07-26T16:40:12.230Z,1.63
2022-07-26T16:42:40.427Z,1.57
2022-07-26T16:45:10.313Z,1.47
2022-07-26T16:47:38.660Z,1.03
2022-07-26T16:50:09.302Z,1.70
2022-07-26T16:52:38.068Z,1.90
2022-07-26T16:55:10.763Z,1.93
2022-07-26T16:57:39.680Z,2.30
2022-07-26T17:00:11.478Z,2.27
2022-07-26T17:02:40.071Z,1.50
2022-07-26T17:05:11.139Z,1.90
2022-07-26T17:07:39.422Z,2.40
2022-07-26T17:10:10.580Z,1.50
2022-07-26T17:12:39.228Z,1.53
2022-07-26T17:15:11.050Z,2.20
2022-07-26T17:17:39.308Z,1.80
2022-07-26T17:20:10.745Z,2.13
2022-07-26T17:22:39.310Z,1.70
2022-07-26T17:25:09.693Z,1.67
2022-07-26T17:27:38.383Z,1.90
2022-07-26T17:30:07.740Z,1.73
2022-07-26T17:32:36.031Z,1.77
2022-07-26T17:35:04.355Z,2.37
2022-07-26T17:37:35.204Z,2.20
2022-07-26T17:40:07.933Z,2.43
2022-07-26T17:42:38.965Z,1.30
2022-07-26T17:45:08.689Z,1.60
2022-07-26T17:47:36.961Z,1.77
2022-07-26T17:50:35.429Z,1.63
2022-07-26T17:52:57.529Z,2.07
2022-07-26T17:55:25.683Z,2.27
2022-07-26T17:57:54.049Z,1.63
2022-07-26T18:00:28.571Z,1.40
2022-07-26T18:02:57.913Z,1.63
2022-07-26T18:05:33.362Z,1.90
2022-07-26T18:08:04.947Z,1.90
2022-07-26T18:10:33.434Z,1.60
2022-07-26T18:13:01.520Z,1.93
2022-07-26T18:15:29.631Z,1.60
2022-07-26T18:17:58.061Z,1.40
2022-07-26T18:20:26.244Z,1.70
2022-07-26T18:22:55.539Z,1.93
2022-07-26T18:25:25.200Z,1.47
2022-07-26T18:27:53.913Z,1.13
2022-07-26T18:30:22.097Z,1.63
2022-07-26T18:32:50.537Z,2.40
2022-07-26T18:35:18.854Z,1.70
2022-07-26T18:37:47.651Z,2.07
2022-07-26T18:40:16.233Z,2.13
2022-07-26T18:42:45.895Z,2.40
2022-07-26T18:45:13.990Z,2.40
2022-07-26T18:47:42.726Z,2.10
2022-07-26T18:50:11.702Z,1.77
2022-07-26T18:52:40.095Z,2.07
2022-07-26T18:55:13.098Z,1.67
2022-07-26T18:57:42.378Z,2.77
2022-07-26T19:00:14.513Z,2.00
2022-07-26T19:02:42.866Z,2.17
2022-07-26T19:05:11.720Z,1.77
2022-07-26T19:07:40.450Z,2.40
2022-07-26T19:10:10.837Z,1.70
2022-07-26T19:12:39.177Z,1.87
2022-07-26T19:15:12.527Z,1.97
2022-07-26T19:17:40.648Z,2.10
2022-07-26T19:20:10.206Z,1.80
2022-07-26T19:22:39.028Z,1.70
2022-07-26T19:25:10.650Z,2.07
2022-07-26T19:27:39.821Z,2.40
2022-07-26T19:30:09.822Z,2.17
2022-07-26T19:32:39.805Z,1.83
2022-07-26T19:35:10.171Z,1.80
2022-07-26T19:37:38.362Z,2.13
2022-07-26T19:40:07.884Z,1.40
2022-07-26T19:42:35.943Z,2.00
2022-07-26T19:45:04.060Z,2.27
2022-07-26T19:47:32.549Z,2.33
2022-07-26T19:50:02.221Z,1.77
2022-07-26T19:52:30.252Z,1.47
2022-07-26T19:54:58.995Z,1.60
2022-07-26T19:57:27.152Z,1.73
2022-07-26T19:59:56.353Z,2.37
2022-07-26T20:02:24.757Z,2.43
2022-07-26T20:04:53.160Z,2.10
2022-07-26T20:07:26.102Z,1.90
2022-07-26T20:09:54.493Z,2.73
2022-07-26T20:12:22.657Z,1.77
2022-07-26T20:14:50.976Z,1.97
2022-07-26T20:17:19.222Z,1.90
2022-07-26T20:19:47.323Z,2.30
2022-07-26T20:22:15.500Z,2.20
2022-07-26T20:24:45.132Z,2.40
2022-07-26T20:27:13.111Z,1.90
2022-07-26T20:29:41.216Z,4.80
2022-07-26T20:32:09.407Z,2.47
2022-07-26T20:34:40.212Z,1.80
2022-07-26T20:37:08.616Z,2.53
2022-07-26T20:39:37.306Z,2.77
2022-07-26T20:42:07.001Z,2.63
2022-07-26T20:44:41.303Z,1.87
2022-07-26T20:47:09.833Z,2.70
2022-07-26T20:49:39.944Z,1.80
2022-07-26T20:52:08.256Z,2.03
2022-07-26T20:54:36.565Z,2.90
2022-07-26T20:57:06.557Z,2.37
2022-07-26T20:59:36.393Z,2.30
2022-07-26T21:02:04.698Z,2.07
2022-07-26T21:04:33.331Z,2.70
2022-07-26T21:07:01.621Z,2.80
2022-07-26T21:09:30.549Z,2.70
2022-07-26T21:11:58.731Z,1.57
2022-07-26T21:14:28.335Z,2.27
2022-07-26T21:16:56.466Z,2.00
2022-07-26T21:19:24.540Z,1.93
2022-07-26T21:21:54.753Z,1.90
2022-07-26T21:24:22.750Z,2.73
2022-07-26T21:26:50.754Z,1.97
2022-07-26T21:29:19.230Z,2.37
2022-07-26T21:31:48.949Z,3.10
2022-07-26T21:34:17.104Z,3.33
2022-07-26T21:36:45.598Z,2.03
2022-07-26T21:39:14.462Z,2.00
2022-07-26T21:41:42.764Z,1.97
2022-07-26T21:44:11.668Z,2.40
2022-07-26T21:46:39.880Z,2.00
2022-07-26T21:49:09.815Z,2.37
2022-07-26T21:51:41.270Z,2.03
2022-07-26T21:54:09.313Z,2.00
2022-07-26T21:56:37.890Z,2.23
2022-07-26T21:59:07.180Z,2.70
2022-07-26T22:01:36.551Z,2.90
2022-07-26T22:04:04.565Z,2.23
2022-07-26T22:06:34.287Z,2.40
2022-07-26T22:09:02.675Z,1.90
2022-07-26T22:11:30.810Z,1.80
2022-07-26T22:13:59.502Z,1.73
2022-07-26T22:16:27.606Z,1.73
2022-07-26T22:18:55.653Z,1.57
2022-07-26T22:21:23.950Z,1.80
2022-07-26T22:23:53.341Z,1.97
2022-07-26T22:26:26.235Z,2.57
2022-07-26T22:28:54.488Z,2.00
2022-07-26T22:31:22.590Z,1.87
2022-07-26T22:33:50.941Z,2.10
2022-07-26T22:36:19.087Z,1.77
2022-07-26T22:38:47.184Z,1.60
2022-07-26T22:41:16.789Z,2.07
2022-07-26T22:43:45.064Z,1.60
2022-07-26T22:46:13.117Z,1.57
2022-07-26T22:48:45.934Z,1.43
2022-07-26T22:51:15.839Z,2.20
2022-07-26T22:53:44.102Z,1.70
2022-07-26T22:56:12.086Z,2.57
2022-07-26T22:58:46.660Z,1.73
2022-07-26T23:01:14.604Z,1.87
2022-07-26T23:03:42.599Z,1.67
2022-07-26T23:06:23.851Z,2.27
2022-07-26T23:09:00.330Z,1.63
2022-07-26T23:11:28.551Z,2.30
2022-07-26T23:14:01.465Z,2.47
2022-07-26T23:16:29.726Z,1.90
2022-07-26T23:18:57.857Z,1.80
2022-07-26T23:21:26.167Z,1.83
2022-07-26T23:23:54.447Z,1.97
2022-07-26T23:26:22.493Z,2.00
2022-07-26T23:28:51.637Z,2.60
2022-07-26T23:31:21.279Z,1.67
2022-07-26T23:33:51.441Z,1.97
2022-07-26T23:36:26.591Z,1.70
2022-07-26T23:38:55.516Z,1.53
2022-07-26T23:41:24.305Z,1.43
2022-07-26T23:43:52.792Z,1.40
2022-07-26T23:46:22.591Z,1.20
2022-07-26T23:48:51.353Z,1.47
2022-07-26T23:51:20.315Z,1.90
2022-07-26T23:53:48.593Z,1.20
2022-07-26T23:56:17.044Z,1.73
2022-07-26T23:58:45.471Z,1.67
